Latest Weather Observations for Fortescue Dave Forrest

IDW60801

Issued at 11:32 am WST Wednesday 27 May 2015 (issued every 30 minutes, with the page automatically refreshed every 10 minutes)

About weather observations | Map of weather stations | Latest weather observations for WA | Other Formats
Station Details ID: 505056 Name: FORTESCUE DAVE FORREST Lat: -22.29 Lon: 119.43 Height: 474.6 m
Data from the previous 72 hours. | See also: Recent months for locations in Western Australia
Date/Time
WST
Temp
°C
App
Temp
°C
Dew
Point
Rel
Hum
%
Delta-T
°C
Wind Press
QNH
hPa
Press
MSL
hPa
Rain
since 9 am
mm
Dir
 
Spd
km/h
Gust
km/h
Spd
kts
Gust
kts
27/11:30am 14.5 13.7 14.1 97 0.2 E 11 15 6 8 1019.5 1017.8 14.0
27/11:18am 14.6 13.9 14.2 97 0.2 ESE 11 15 6 8 1019.7 1018.1 6.8
27/11:00am 14.8 14.1 14.3 97 0.3 ESE 11 15 6 8 1019.6 1017.9 5.4
27/10:30am 14.8 14.1 14.3 97 0.3 SSE 11 17 6 9 1019.4 1017.7 5.0
27/10:00am 14.7 14.0 14.3 97 0.2 S 11 17 6 9 1019.8 1018.2 4.6
27/09:57am 14.8 14.1 14.4 97 0.2 S 11 19 6 10 1019.7 1018.1 4.6
27/09:34am 14.7 14.0 14.2 97 0.3 SSW 11 22 6 12 1020.0 1018.4 3.2
27/09:30am 14.7 14.7 14.3 97 0.2 SSW 7 13 4 7 1020.0 1018.4 2.8
27/09:24am 14.7 14.7 14.2 97 0.3 SSE 7 13 4 7 1019.7 1018.1 2.4
27/09:02am 14.8 14.8 14.1 96 0.4 S 7 11 4 6 1019.6 1017.9 0.4
27/09:00am 14.8 14.8 14.1 96 0.4 SSE 7 11 4 6 1019.5 1017.8 1.2
27/08:30am 15.2 14.7 13.8 91 0.8 SE 9 11 5 6 1019.2 1017.5 0.0
27/08:00am 15.1 15.0 13.8 92 0.7 SE 7 13 4 7 1019.2 1017.5 0.0
27/07:30am 14.9 15.0 13.8 93 0.6 SE 6 9 3 5 1019.2 1017.5 0.0
27/07:00am 14.6 14.7 13.8 95 0.5 SE 6 9 3 5 1018.8 1017.1 0.0
27/06:30am 14.5 14.4 13.8 96 0.4 SSE 7 11 4 6 1018.7 1017.0 0.0
27/06:00am 14.7 14.9 14.1 96 0.3 SSE 6 9 3 5 1018.5 1016.8 0.0
27/05:30am 14.8 15.0 14.1 96 0.4 SSE 6 7 3 4 1018.1 1016.4 0.0
27/05:00am 14.9 15.0 14.0 94 0.5 SE 6 7 3 4 1018.0 1016.3 0.0
27/04:30am 14.8 15.0 14.1 96 0.4 ESE 6 6 3 3 1018.0 1016.3 0.0
27/04:00am 14.9 14.9 14.1 95 0.5 ESE 7 11 4 6 1018.3 1016.6 0.0
27/03:30am 14.8 14.4 14.0 95 0.5 ESE 9 11 5 6 1018.6 1016.9 0.0
27/03:00am 14.9 14.8 13.8 93 0.6 SE 7 11 4 6 1018.6 1016.9 0.0
27/02:30am 14.9 14.8 13.9 94 0.6 ESE 7 11 4 6 1018.9 1017.2 0.0
27/02:00am 15.0 14.9 13.8 92 0.7 SE 7 9 4 5 1019.0 1017.3 0.0
27/01:30am 15.0 14.9 13.8 92 0.7 SE 7 11 4 6 1019.2 1017.5 0.0
27/01:00am 15.0 14.9 13.8 92 0.7 SSE 7 13 4 7 1019.5 1017.8 0.0
27/12:30am 15.1 14.6 13.9 92 0.7 SE 9 15 5 8 1019.6 1017.9 0.0
27/12:00am 15.4 15.0 14.1 92 0.8 SE 9 13 5 7 1020.0 1018.4 0.0
 
Date/Time
WST
Temp
°C
App
Temp
°C
Dew
Point
Rel
Hum
%
Delta-T
°C
Wind Press
QNH
hPa
Press
MSL
hPa
Rain
since 9 am
mm
Dir
 
Spd
km/h
Gust
km/h
Spd
kts
Gust
kts
26/11:30pm 15.4 15.0 14.1 92 0.8 SSE 9 11 5 6 1020.3 1018.6 0.0
26/11:00pm 15.6 15.2 14.1 91 0.9 SE 9 13 5 7 1020.6 1018.9 0.0
26/10:30pm 15.8 15.4 14.0 89 1.0 SE 9 15 5 8 1020.7 1019.0 0.0
26/10:00pm 16.1 15.3 13.9 87 1.3 SE 11 19 6 10 1020.8 1019.1 0.0
26/09:30pm 16.2 15.3 13.8 86 1.4 SE 11 17 6 9 1021.0 1019.3 0.0
26/09:00pm 16.4 15.5 13.7 84 1.6 SE 11 20 6 11 1021.1 1019.4 0.0
26/08:30pm 16.7 15.8 13.8 83 1.7 SE 11 20 6 11 1021.1 1019.4 0.0
26/08:00pm 17.1 15.8 13.7 80 2.0 SE 13 19 7 10 1021.1 1019.4 0.0
26/07:30pm 17.3 16.0 13.6 79 2.1 SE 13 20 7 11 1020.9 1019.2 0.0
26/07:00pm 17.5 16.2 13.8 79 2.1 SE 13 20 7 11 1020.6 1018.9 0.0
26/06:30pm 17.6 16.3 13.8 78 2.2 SE 13 20 7 11 1020.2 1018.5 0.0
26/06:00pm 17.8 16.1 13.5 76 2.5 SE 15 24 8 13 1019.8 1018.2 0.0
26/05:30pm 18.1 16.8 13.7 75 2.6 SE 13 19 7 10 1019.7 1018.1 0.0
26/05:00pm 18.4 16.6 13.4 72 2.9 SE 15 20 8 11 1019.5 1017.8 0.0
26/04:30pm 18.9 17.7 14.0 73 2.9 SE 13 22 7 12 1019.2 1017.5 0.0
26/04:00pm 19.0 17.3 13.7 71 3.1 SE 15 19 8 10 1019.1 1017.4 0.0
26/03:30pm 18.4 17.3 14.3 77 2.4 ESE 13 17 7 9 1019.2 1017.5 0.0
26/03:00pm 18.1 17.2 13.7 75 2.6 SE 11 15 6 8 1019.1 1017.4 0.0
26/02:30pm 17.9 17.6 14.4 80 2.1 ESE 9 11 5 6 1019.1 1017.4 0.0
26/02:00pm 18.2 17.5 14.4 78 2.2 SE 11 17 6 9 1018.9 1017.2 0.0
26/01:30pm 18.6 18.0 13.5 72 3.0 SE 9 13 5 7 1019.1 1017.4 0.0
26/01:00pm 18.3 18.0 13.3 72 2.9 ESE 7 13 4 7 1019.5 1017.8 0.0
26/12:30pm 18.2 17.1 13.0 71 3.0 SE 11 17 6 9 1019.6 1017.9 0.0
26/12:00pm 18.4 17.3 13.2 71 3.0 SSE 11 19 6 10 1019.9 1018.3 0.0
26/11:30am 18.5 16.5 12.7 69 3.3 SE 15 20 8 11 1020.2 1018.5 0.0
26/11:00am 17.8 15.9 13.0 73 2.7 SE 15 22 8 12 1020.6 1018.9 0.0
26/10:30am 17.8 16.3 13.2 74 2.6 SSE 13 19 7 10 1021.0 1019.3 0.0
26/10:00am 17.1 16.0 13.1 77 2.3 SE 11 19 6 10 1021.4 1019.7 0.0
26/09:30am 16.2 15.3 12.6 79 2.0 SSE 9 19 5 10 1021.4 1019.7 0.0
26/09:00am 16.2 14.5 12.4 78 2.1 SE 13 17 7 9 1021.3 1019.6 1.2
26/08:30am 15.5 13.6 12.9 84 1.5 ESE 15 20 8 11 1020.8 1019.1 1.2
26/08:00am 14.7 13.1 12.9 89 1.0 SE 13 20 7 11 1020.7 1019.0 1.2
26/07:30am 14.4 13.3 13.0 91 0.8 SE 11 20 6 11 1020.8 1019.1 1.2
26/07:00am 13.9 13.1 13.0 94 0.5 SE 9 13 5 7 1020.6 1018.9 1.2
26/06:30am 13.9 13.1 13.0 94 0.5 SSE 9 13 5 7 1020.6 1018.9 1.0
26/06:00am 13.8 13.4 12.9 94 0.5 SE 7 11 4 6 1020.5 1018.8 1.0
26/05:30am 13.8 13.4 12.9 94 0.5 SE 7 11 4 6 1020.0 1018.4 1.0
26/05:00am 13.8 13.0 12.9 94 0.5 SE 9 13 5 7 1019.7 1018.1 1.0
26/04:30am 13.8 13.4 13.0 95 0.4 SSE 7 11 4 6 1019.9 1018.3 1.0
26/04:00am 13.8 13.0 13.0 95 0.4 SSE 9 15 5 8 1019.6 1017.9 1.0
26/03:30am 13.8 13.6 13.1 96 0.4 SSW 6 9 3 5 1020.2 1018.5 1.0
26/03:00am 13.6 13.3 12.8 95 0.4 SE 6 9 3 5 1019.5 1017.8 1.0
26/02:30am 14.0 13.3 13.1 94 0.5 SE 9 13 5 7 1019.8 1018.2 1.0
26/02:00am 14.0 13.6 13.1 94 0.5 SE 7 13 4 7 1020.0 1018.4 1.0
26/01:30am 14.1 13.8 13.2 94 0.5 SSE 7 11 4 6 1020.3 1018.6 1.0
26/01:00am 14.1 13.7 13.1 94 0.6 SSE 7 13 4 7 1020.4 1018.7 1.0
26/12:30am 14.3 13.1 12.9 91 0.8 SE 11 17 6 9 1020.5 1018.8 1.0
26/12:00am 14.3 13.2 13.0 92 0.7 SE 11 17 6 9 1020.8 1019.1 1.0
 
Date/Time
WST
Temp
°C
App
Temp
°C
Dew
Point
Rel
Hum
%
Delta-T
°C
Wind Press
QNH
hPa
Press
MSL
hPa
Rain
since 9 am
mm
Dir
 
Spd
km/h
Gust
km/h
Spd
kts
Gust
kts
25/11:30pm 14.3 12.4 13.0 92 0.7 ESE 15 22 8 12 1020.8 1019.1 1.0
25/11:00pm 14.3 12.4 13.0 92 0.7 SE 15 20 8 11 1020.9 1019.2 1.0
25/10:30pm 14.4 12.2 13.2 92 0.7 SE 17 22 9 12 1021.0 1019.3 1.0
25/10:00pm 14.5 12.3 13.4 93 0.6 SE 17 24 9 13 1021.0 1019.3 1.0
25/09:30pm 14.7 13.0 13.5 92 0.7 SE 15 20 8 11 1021.2 1019.5 1.0
25/09:00pm 14.8 13.4 13.5 92 0.7 SE 13 22 7 12 1021.2 1019.5 1.0
25/08:30pm 14.9 13.8 13.1 89 1.0 SSE 11 17 6 9 1021.2 1019.5 1.0
25/08:00pm 15.2 13.2 12.7 85 1.4 SE 15 20 8 11 1020.9 1019.2 1.0
25/07:30pm 15.5 13.8 12.4 82 1.7 SE 13 20 7 11 1020.7 1019.0 1.0
25/07:00pm 15.6 14.3 12.5 82 1.7 SE 11 17 6 9 1020.3 1018.6 1.0
25/06:30pm 15.6 14.3 12.4 81 1.8 SE 11 17 6 9 1019.9 1018.3 1.0
25/06:00pm 15.6 14.6 12.2 80 1.9 SE 9 13 5 7 1020.0 1018.4 1.0
25/05:30pm 16.5 14.6 11.9 74 2.6 ESE 13 15 7 8 1019.4 1017.7 1.0
25/05:00pm 16.7 14.8 11.8 73 2.7 ESE 13 19 7 10 1019.0 1017.3 1.0
25/04:30pm 16.9 14.3 12.0 73 2.7 ESE 17 22 9 12 1018.9 1017.2 1.0
25/04:00pm 17.2 13.8 11.3 68 3.3 E 20 26 11 14 1018.6 1016.9 1.0
25/03:30pm 17.2 14.5 11.7 70 3.1 E 17 24 9 13 1019.2 1017.5 1.0
25/03:00pm 17.5 15.1 12.7 73 2.7 E 17 24 9 13 1019.2 1017.5 1.0
25/02:30pm 17.2 14.9 13.0 76 2.4 E 17 19 9 10 1019.3 1017.6 1.0
25/02:00pm 16.8 14.7 12.5 76 2.4 ESE 15 19 8 10 1019.2 1017.5 1.0
25/01:30pm 16.6 14.2 12.7 78 2.2 E 17 22 9 12 1019.3 1017.6 1.0
25/01:00pm 16.5 13.8 12.8 79 2.1 E 19 24 10 13 1019.4 1017.7 1.0
25/12:30pm 15.9 14.2 12.4 80 2.0 E 13 19 7 10 1020.2 1018.5 1.0
25/12:00pm 15.3 14.3 13.3 88 1.1 ESE 11 17 6 9 1020.6 1018.9 1.0
25/11:30am 14.8 12.7 12.5 86 1.3 ENE 15 22 8 12 1020.9 1019.2 0.8
25/11:00am 14.4 13.2 12.8 90 0.9 E 11 19 6 10 1021.3 1019.6 0.8
25/10:45am 14.2 13.4 13.0 92 0.7 E 9 15 5 8 1021.3 1019.6 0.8
25/10:30am 14.0 13.2 12.9 93 0.6 E 9 13 5 7 1021.7 1020.1 0.8
25/10:28am 14.1 13.7 13.1 94 0.6 E 7 11 4 6 1021.7 1020.1 0.8
25/10:00am 13.8 11.8 12.6 92 0.7 ENE 15 22 8 12 1021.7 1020.1 0.4
25/09:54am 13.9 12.2 12.6 92 0.7 ENE 13 22 7 12 1021.8 1020.2 0.2
25/09:30am 14.2 10.9 12.7 91 0.8 ENE 22 33 12 18 1021.6 1020.0 0.0
25/09:00am 14.3 11.4 12.8 91 0.8 ENE 20 28 11 15 1021.2 1019.5 -
25/08:59am 14.2 11.2 12.7 91 0.8 ENE 20 30 11 16 1021.2 1019.5 -
25/08:30am 14.0 9.6 12.8 92 0.7 NE 28 39 15 21 1021.3 1019.6 -
25/08:00am 13.6 9.9 12.7 94 0.5 NE 24 35 13 19 1021.2 1019.5 -
25/07:57am 13.6 9.9 12.6 94 0.6 NE 24 35 13 19 1021.1 1019.4 -
25/07:30am 13.7 10.3 12.4 92 0.7 NE 22 30 12 16 1020.7 1019.0 -
25/07:00am 13.3 10.2 12.2 93 0.6 NE 20 33 11 18 1020.3 1018.6 -
 
Date/Time
WST
Temp
°C
App
Temp
°C
Dew
Point
Rel
Hum
%
Delta-T
°C
Wind Press
QNH
hPa
Press
MSL
hPa
Rain
since 9 am
mm
Dir
 
Spd
km/h
Gust
km/h
Spd
kts
Gust
kts
24/03:00pm 15.7 - 14.2 91 0.9 - - - - - 1017.5 1015.8 6.0
24/02:30pm 15.5 13.5 14.0 91 0.9 ENE 17 24 9 13 1017.7 1016.0 5.8
24/02:09pm 15.4 14.0 14.5 94 0.5 E 15 19 8 10 1017.7 1016.0 5.2
24/02:00pm 15.4 14.0 14.4 94 0.6 ESE 15 19 8 10 1017.5 1015.8 5.0
24/01:47pm 15.7 15.9 14.1 90 0.9 NE 6 11 3 6 1018.3 1016.6 3.4
24/01:30pm 15.8 15.3 13.8 88 1.2 NE 9 17 5 9 1018.2 1016.5 1.8
24/01:20pm 15.6 15.7 14.0 90 0.9 NNE 6 11 3 6 1018.7 1017.0 1.6
24/01:13pm 15.7 15.4 14.3 91 0.8 NE 9 17 5 9 1018.6 1016.9 1.4
24/01:09pm 15.5 14.4 14.2 92 0.8 ENE 13 22 7 12 1018.4 1016.7 1.2
24/01:00pm 15.5 13.6 14.1 91 0.8 ENE 17 22 9 12 1017.8 1016.2 1.2
24/12:56pm 15.6 14.1 14.3 92 0.8 ENE 15 20 8 11 1018.3 1016.6 1.2
24/12:30pm 16.8 15.4 14.4 86 1.4 NE 15 19 8 10 1018.3 1016.6 0.2
24/12:00pm 17.2 16.3 14.8 86 1.4 NE 13 17 7 9 1019.2 1017.5 0.2

Other Formats:

Comma delimited format used in spreadsheet applications
http://www.bom.gov.au/fwo/IDW60801/IDW60801.99736.axf

JavaScript Object Notation format (JSON) in row-major order
http://www.bom.gov.au/fwo/IDW60801/IDW60801.99736.json